University Oxford Airport Oxford US
ICAO: KUOX
IATA: UOX
Category: Medium
Scheduled Services: No

Elevation: 452 ft
TransAlt. 18000 ft.

Airport Communications:
AWOS 3:132.725
MEMPHIS CNTR:128.5
CTAF/UNICOM:123

KUOX Zoom In..

Runways:

(A) RW 09 length 5600 ft width 100 ft
LOC 111.70 / hdg 90

(B) RW 27 length 5600 ft width 100 ft
LOC 111.70 / hdg 270

Location; KUOX
Day. 17 / Time. 18.15 Zulu
* Altimeter: 29.86
* Temperature: 23° c. 73.4°f.
* Wind from: 000° Speed 00 kn.
Dewpoint: 20° c.
Visibility: 9 Statute Miles.
Clouds: Few 800 ft.
Clouds: Scattered 1000 ft.
Clouds: Scattered 12000 ft.

KUOX 171815Z AUTO 00000KT 9SM FEW008 SCT100 SCT120 23/20 A2986 RMK AO2 LTG DSNT N AND NE


Wind - Calm.

 
 
jpsmedia.com for Web Design SOUNDCLOUD worldairports.se 2018   terms of use